TAF Text Data
IDs:
Format:
Raw Decoded Include METAR

Data at: 1209 UTC 17 Dec 2018

KLBB 171153Z 34005KT 10SM BKN130 BKN150 03/M02 A3026 RMK AO2 SLP240 T00281017 10028 20006 56012

KLBB 171135Z 1712/1812 18007KT P6SM BKN120